YYC weather

Calgary International Airport
Calgary, Alberta, Canada

Public forecast

Using degrees Celsius for public forecast. Weather courtesy of forecast.io.

METAR (pilot weather report)

Retrieved 2019/01/17 08:21 UTC (17 minutes ago):

CYYC 170821Z 06008KT 2SM -SG SCT007 OVC011 M10/M11 A3006 RMK SN2ST1ST5 SLP250

TAF (pilot weather forecast)

Retrieved 2019/01/17 06:39 UTC (2 hours ago):

TAF CYYC 170538Z 1706/1806 02008KT 3/4SM -SG BR OVC003 TEMPO 1706/1715 3SM -SN OVC008 PROB40 1706/1715 1/4SM -SN FZFG VV001 FM171500 10008KT 4SM -SN BR SCT005 OVC010 TEMPO 1715/1718 1SM -SN BR OVC005 FM171800 12010KT 6SM -SN BR OVC012 RMK NXT FCST BY 170900Z